createdAt,value
2018-07-19T00:01:31.024Z,19.50
2018-07-19T00:04:01.209Z,19.50
2018-07-19T00:06:31.484Z,19.50
2018-07-19T00:09:01.662Z,19.50
2018-07-19T00:11:31.860Z,19.40
2018-07-19T00:14:02.053Z,19.40
2018-07-19T00:16:38.298Z,19.30
2018-07-19T00:19:08.464Z,19.20
2018-07-19T00:21:38.760Z,19.20
2018-07-19T00:24:09.034Z,19.20
2018-07-19T00:26:39.355Z,19.10
2018-07-19T00:29:10.092Z,19.10
2018-07-19T00:31:40.352Z,19.10
2018-07-19T00:34:10.626Z,19.10
2018-07-19T00:36:42.247Z,19.00
2018-07-19T00:39:12.514Z,19.00
2018-07-19T00:41:45.718Z,19.00
2018-07-19T00:44:17.219Z,18.90
2018-07-19T00:46:49.556Z,18.90
2018-07-19T00:49:20.490Z,18.80
2018-07-19T00:51:51.927Z,18.70
2018-07-19T00:54:22.122Z,18.70
2018-07-19T00:56:52.338Z,18.70
2018-07-19T00:59:22.870Z,18.70
2018-07-19T01:01:53.022Z,18.60
2018-07-19T01:04:23.234Z,18.60
2018-07-19T01:06:53.554Z,18.50
2018-07-19T01:09:23.750Z,18.50
2018-07-19T01:11:53.965Z,18.40
2018-07-19T01:14:24.141Z,18.30
2018-07-19T01:16:54.352Z,18.30
2018-07-19T01:19:24.454Z,18.30
2018-07-19T01:21:54.681Z,18.30
2018-07-19T01:24:24.901Z,18.20
2018-07-19T01:26:55.029Z,18.10
2018-07-19T01:29:25.181Z,18.10
2018-07-19T01:31:55.407Z,18.10
2018-07-19T01:34:25.527Z,18.00
2018-07-19T01:36:55.700Z,18.00
2018-07-19T01:39:25.800Z,17.90
2018-07-19T01:42:38.507Z,17.90
2018-07-19T01:45:10.188Z,17.80
2018-07-19T01:47:41.242Z,17.70
2018-07-19T01:50:12.059Z,17.60
2018-07-19T01:52:42.218Z,17.50
2018-07-19T01:55:12.406Z,17.40
2018-07-19T02:00:12.345Z,17.30
2018-07-19T02:02:42.504Z,17.30
2018-07-19T02:05:12.767Z,17.10
2018-07-19T02:07:42.962Z,17.10
2018-07-19T02:10:13.177Z,17.10
2018-07-19T02:12:43.381Z,17.00
2018-07-19T02:15:13.570Z,16.90
2018-07-19T02:17:43.818Z,16.80
2018-07-19T02:20:13.973Z,16.80
2018-07-19T02:22:44.190Z,16.90
2018-07-19T02:25:14.341Z,16.90
2018-07-19T02:27:44.577Z,17.00
2018-07-19T02:30:14.706Z,17.00
2018-07-19T02:32:45.147Z,17.00
2018-07-19T02:35:15.299Z,17.00
2018-07-19T02:37:45.488Z,17.00
2018-07-19T02:40:15.677Z,17.00
2018-07-19T02:42:45.833Z,16.90
2018-07-19T02:45:15.959Z,16.90
2018-07-19T02:47:46.168Z,17.00
2018-07-19T02:50:16.311Z,17.10
2018-07-19T02:52:46.483Z,17.10
2018-07-19T02:55:16.664Z,17.10
2018-07-19T02:57:46.871Z,17.10
2018-07-19T03:00:17.044Z,17.00
2018-07-19T03:02:47.233Z,17.00
2018-07-19T03:05:17.342Z,17.00
2018-07-19T03:07:47.569Z,17.00
2018-07-19T03:10:17.626Z,17.00
2018-07-19T03:12:47.772Z,17.00
2018-07-19T03:15:17.913Z,16.90
2018-07-19T03:17:48.107Z,16.80
2018-07-19T03:20:18.281Z,16.80
2018-07-19T03:22:48.451Z,16.70
2018-07-19T03:25:18.598Z,16.70
2018-07-19T03:27:48.719Z,16.70
2018-07-19T03:30:18.886Z,16.70
2018-07-19T03:32:49.114Z,16.60
2018-07-19T03:35:19.229Z,16.60
2018-07-19T03:37:49.397Z,16.60
2018-07-19T03:40:19.563Z,16.60
2018-07-19T03:42:49.805Z,16.60
2018-07-19T03:45:20.056Z,16.60
2018-07-19T03:47:50.297Z,16.70
2018-07-19T03:50:20.539Z,16.70
2018-07-19T03:52:50.795Z,16.70
2018-07-19T03:55:21.067Z,16.50
2018-07-19T03:57:51.532Z,16.40
2018-07-19T04:00:21.660Z,16.40
2018-07-19T04:02:51.833Z,16.30
2018-07-19T04:05:21.990Z,16.30
2018-07-19T04:07:52.450Z,16.30
2018-07-19T04:10:22.716Z,16.30
2018-07-19T04:12:53.094Z,16.30
2018-07-19T04:15:23.364Z,16.40
2018-07-19T04:17:57.549Z,16.40
2018-07-19T04:20:28.903Z,16.40
2018-07-19T04:22:59.168Z,16.50
2018-07-19T04:25:29.467Z,16.60
2018-07-19T04:27:59.634Z,16.70
2018-07-19T04:30:29.730Z,16.80
2018-07-19T04:32:59.902Z,17.00
2018-07-19T04:35:30.067Z,17.20
2018-07-19T04:38:00.202Z,17.40
2018-07-19T04:40:30.389Z,17.60
2018-07-19T04:43:00.531Z,17.80
2018-07-19T04:45:30.695Z,18.00
2018-07-19T04:48:00.887Z,18.10
2018-07-19T04:50:31.055Z,18.20
2018-07-19T04:53:01.205Z,18.30
2018-07-19T04:55:31.390Z,18.40
2018-07-19T04:58:01.577Z,18.40
2018-07-19T05:00:31.773Z,18.40
2018-07-19T05:03:01.979Z,18.50
2018-07-19T05:05:32.381Z,18.60
2018-07-19T05:08:02.522Z,18.60
2018-07-19T05:10:32.630Z,18.50
2018-07-19T05:13:03.051Z,18.40
2018-07-19T05:15:33.402Z,18.30
2018-07-19T05:18:03.578Z,18.40
2018-07-19T05:20:34.371Z,18.50
2018-07-19T05:23:04.667Z,18.60
2018-07-19T05:25:34.953Z,18.70
2018-07-19T05:28:05.232Z,18.70
2018-07-19T05:30:35.414Z,18.90
2018-07-19T05:33:05.639Z,19.00
2018-07-19T05:35:35.864Z,19.10
2018-07-19T05:38:06.063Z,19.20
2018-07-19T05:40:36.251Z,19.40
2018-07-19T05:43:06.392Z,19.50
2018-07-19T05:45:36.600Z,19.70
2018-07-19T05:48:06.812Z,19.70
2018-07-19T05:50:37.304Z,19.80
2018-07-19T05:53:07.639Z,20.10
2018-07-19T05:55:37.792Z,20.40
2018-07-19T05:58:08.125Z,20.50
2018-07-19T06:00:38.232Z,20.60
2018-07-19T06:03:08.466Z,21.00
2018-07-19T06:05:38.712Z,21.20
2018-07-19T06:08:08.907Z,21.20
2018-07-19T06:10:39.084Z,21.60
2018-07-19T06:13:09.413Z,21.90
2018-07-19T06:15:39.592Z,22.20
2018-07-19T06:18:09.857Z,22.10
2018-07-19T06:20:40.061Z,22.20
2018-07-19T06:23:10.309Z,22.40
2018-07-19T06:25:40.547Z,22.60
2018-07-19T06:28:10.765Z,22.60
2018-07-19T06:33:11.181Z,23.60
2018-07-19T06:35:41.301Z,24.10
2018-07-19T06:38:11.527Z,24.40
2018-07-19T06:43:11.722Z,23.90
2018-07-19T06:45:42.224Z,23.70
2018-07-19T06:48:12.404Z,23.70
2018-07-19T06:50:42.601Z,23.60
2018-07-19T06:53:12.777Z,23.00
2018-07-19T06:55:43.022Z,23.10
2018-07-19T07:00:43.067Z,23.20
2018-07-19T07:03:13.448Z,23.40
2018-07-19T07:05:43.617Z,23.70
2018-07-19T07:08:13.913Z,23.70
2018-07-19T07:10:49.533Z,23.60
2018-07-19T07:13:19.737Z,23.20
2018-07-19T07:15:50.049Z,23.80
2018-07-19T07:18:20.246Z,24.70
2018-07-19T07:20:54.208Z,24.80
2018-07-19T07:23:24.489Z,25.00
2018-07-19T07:25:55.734Z,25.80
2018-07-19T07:28:27.489Z,26.70
2018-07-19T07:30:57.646Z,26.90
2018-07-19T07:33:27.845Z,26.60
2018-07-19T07:35:58.130Z,26.60
2018-07-19T07:38:28.312Z,26.60
2018-07-19T07:40:58.608Z,27.70
2018-07-19T07:43:28.884Z,28.90
2018-07-19T07:45:59.010Z,30.10
2018-07-19T07:48:32.503Z,31.20
2018-07-19T07:51:02.637Z,32.10
2018-07-19T07:53:32.872Z,32.40
2018-07-19T07:56:03.298Z,31.80
2018-07-19T07:58:33.554Z,31.00
2018-07-19T08:01:03.761Z,30.20
2018-07-19T08:03:33.911Z,29.80
2018-07-19T08:06:04.193Z,29.70
2018-07-19T08:08:34.643Z,29.50
2018-07-19T08:11:04.885Z,29.30
2018-07-19T08:13:35.053Z,29.10
2018-07-19T08:16:05.281Z,29.00
2018-07-19T08:18:35.607Z,29.50
2018-07-19T08:21:05.719Z,29.50
2018-07-19T08:23:35.924Z,29.40
2018-07-19T08:26:06.423Z,29.20
2018-07-19T08:28:36.653Z,29.20
2018-07-19T08:31:06.785Z,29.40
2018-07-19T08:33:36.948Z,29.70
2018-07-19T08:36:07.284Z,29.60
2018-07-19T08:38:37.609Z,29.10
2018-07-19T08:41:07.971Z,29.10
2018-07-19T08:43:45.017Z,29.40
2018-07-19T08:46:15.356Z,28.80
2018-07-19T08:48:45.524Z,28.70
2018-07-19T08:51:15.736Z,28.70
2018-07-19T08:53:45.897Z,29.20
2018-07-19T08:58:46.183Z,30.10
2018-07-19T09:01:16.505Z,31.00
2018-07-19T09:03:51.957Z,31.40
2018-07-19T09:06:25.688Z,30.90
2018-07-19T09:09:01.739Z,30.60
2018-07-19T09:11:33.496Z,31.10
2018-07-19T09:14:05.995Z,30.90
2018-07-19T09:16:36.229Z,30.50
2018-07-19T09:19:08.995Z,30.40
2018-07-19T09:21:39.297Z,31.00
2018-07-19T09:24:09.584Z,31.50
2018-07-19T09:26:39.791Z,31.50
2018-07-19T09:29:09.983Z,31.30
2018-07-19T09:31:40.186Z,31.40
2018-07-19T09:34:10.397Z,31.60
2018-07-19T09:36:40.616Z,31.90
2018-07-19T09:39:12.888Z,31.90
2018-07-19T09:41:43.880Z,31.90
2018-07-19T09:44:14.014Z,31.70
2018-07-19T09:46:44.146Z,30.90
2018-07-19T09:49:14.370Z,31.10
2018-07-19T09:51:44.500Z,31.20
2018-07-19T09:54:30.017Z,31.40
2018-07-19T09:57:00.136Z,31.50
2018-07-19T09:59:31.671Z,31.20
2018-07-19T10:02:01.835Z,31.50
2018-07-19T10:04:32.048Z,31.30
2018-07-19T10:07:02.343Z,30.80
2018-07-19T10:09:32.695Z,30.90
2018-07-19T10:12:06.909Z,30.90
2018-07-19T10:14:38.673Z,30.50
2018-07-19T10:17:08.874Z,30.40
2018-07-19T10:19:39.192Z,30.20
2018-07-19T10:22:09.428Z,30.30
2018-07-19T10:24:39.624Z,30.10
2018-07-19T10:27:09.840Z,29.80
2018-07-19T10:29:40.563Z,29.60
2018-07-19T10:32:11.072Z,29.50
2018-07-19T10:34:41.155Z,29.50
2018-07-19T10:37:11.313Z,29.50
2018-07-19T10:39:41.476Z,29.30
2018-07-19T10:42:11.966Z,28.80
2018-07-19T10:44:42.153Z,28.20
2018-07-19T10:47:12.591Z,28.00
2018-07-19T10:49:42.751Z,27.90
2018-07-19T10:52:12.904Z,27.90
2018-07-19T10:54:43.134Z,28.10
2018-07-19T10:57:13.303Z,28.30
2018-07-19T10:59:43.528Z,28.20
2018-07-19T11:02:13.734Z,28.20
2018-07-19T11:04:43.971Z,28.20
2018-07-19T11:07:14.084Z,28.20
2018-07-19T11:09:44.912Z,28.40
2018-07-19T11:12:15.041Z,28.70
2018-07-19T11:14:45.190Z,28.90
2018-07-19T11:17:15.371Z,28.70
2018-07-19T11:19:45.492Z,28.80
2018-07-19T11:22:15.637Z,28.90
2018-07-19T11:24:45.888Z,28.80
2018-07-19T11:27:16.062Z,28.60
2018-07-19T11:29:46.265Z,28.70
2018-07-19T11:32:16.585Z,28.90
2018-07-19T11:34:46.955Z,28.80
2018-07-19T11:37:17.190Z,28.60
2018-07-19T11:39:47.779Z,28.50
2018-07-19T11:42:17.873Z,28.40
2018-07-19T11:44:47.998Z,28.10
2018-07-19T11:47:18.192Z,28.00
2018-07-19T11:49:48.394Z,27.80
2018-07-19T11:52:18.509Z,27.70
2018-07-19T11:54:48.671Z,27.70
2018-07-19T11:57:18.896Z,27.70
2018-07-19T11:59:49.018Z,27.60
2018-07-19T12:02:19.197Z,27.50
2018-07-19T12:04:49.382Z,27.40
2018-07-19T12:07:19.643Z,27.50
2018-07-19T12:09:49.799Z,27.70
2018-07-19T12:12:19.928Z,28.00
2018-07-19T12:14:50.168Z,28.10
2018-07-19T12:17:20.339Z,28.10
2018-07-19T12:19:50.578Z,28.20
2018-07-19T12:22:20.935Z,28.20
2018-07-19T12:24:51.145Z,27.80
2018-07-19T12:27:21.308Z,27.50
2018-07-19T12:29:51.585Z,27.60
2018-07-19T12:32:23.995Z,27.70
2018-07-19T12:34:54.275Z,27.80
2018-07-19T12:37:24.423Z,28.00
2018-07-19T12:39:54.556Z,28.10
2018-07-19T12:42:24.795Z,28.20
2018-07-19T12:44:55.029Z,28.20
2018-07-19T12:47:25.156Z,28.00
2018-07-19T12:49:55.292Z,28.20
2018-07-19T12:52:25.505Z,28.50
2018-07-19T12:54:55.638Z,28.70
2018-07-19T12:57:25.756Z,28.90
2018-07-19T12:59:55.978Z,29.30
2018-07-19T13:02:26.151Z,29.60
2018-07-19T13:04:56.664Z,30.20
2018-07-19T13:07:26.856Z,30.50
2018-07-19T13:09:57.020Z,30.50
2018-07-19T13:12:27.161Z,30.20
2018-07-19T13:14:57.399Z,30.00
2018-07-19T13:17:27.593Z,30.00
2018-07-19T13:19:57.793Z,30.10
2018-07-19T13:22:27.946Z,30.40
2018-07-19T13:27:27.957Z,30.60
2018-07-19T13:29:58.331Z,30.80
2018-07-19T13:32:28.437Z,30.90
2018-07-19T13:34:58.680Z,31.00
2018-07-19T13:37:28.859Z,30.90
2018-07-19T13:39:59.027Z,30.50
2018-07-19T13:42:29.166Z,30.60
2018-07-19T13:45:00.282Z,30.90
2018-07-19T13:47:30.433Z,31.00
2018-07-19T13:50:00.598Z,31.00
2018-07-19T13:52:47.250Z,31.10
2018-07-19T13:55:17.407Z,31.30
2018-07-19T13:57:47.544Z,31.30
2018-07-19T14:00:17.721Z,31.10
2018-07-19T14:02:47.925Z,31.10
2018-07-19T14:05:18.358Z,31.10
2018-07-19T14:07:48.525Z,30.90
2018-07-19T14:10:18.719Z,31.00
2018-07-19T14:12:48.875Z,31.20
2018-07-19T14:15:19.084Z,31.20
2018-07-19T14:17:49.813Z,31.10
2018-07-19T14:22:49.808Z,30.90
2018-07-19T14:25:20.083Z,30.90
2018-07-19T14:27:50.360Z,30.90
2018-07-19T14:30:20.620Z,31.00
2018-07-19T14:32:50.818Z,31.20
2018-07-19T14:35:21.024Z,31.30
2018-07-19T14:37:51.628Z,31.60
2018-07-19T14:40:22.814Z,31.70
2018-07-19T14:42:52.998Z,31.70
2018-07-19T14:45:23.258Z,32.00
2018-07-19T14:47:53.920Z,32.00
2018-07-19T14:50:24.254Z,31.70
2018-07-19T14:52:54.531Z,31.80
2018-07-19T14:55:24.750Z,32.10
2018-07-19T14:57:54.960Z,32.30
2018-07-19T15:00:25.159Z,32.40
2018-07-19T15:02:55.278Z,32.80
2018-07-19T15:05:25.485Z,33.00
2018-07-19T15:07:55.607Z,33.10
2018-07-19T15:10:28.680Z,33.40
2018-07-19T15:12:58.885Z,33.40
2018-07-19T15:15:29.088Z,33.00
2018-07-19T15:17:59.393Z,32.90
2018-07-19T15:20:29.545Z,32.70
2018-07-19T15:23:01.412Z,32.10
2018-07-19T15:25:32.137Z,31.10
2018-07-19T15:28:02.405Z,31.10
2018-07-19T15:30:32.517Z,31.40
2018-07-19T15:33:02.639Z,31.60
2018-07-19T15:35:32.793Z,31.40
2018-07-19T15:38:02.930Z,31.30
2018-07-19T15:40:33.090Z,31.00
2018-07-19T15:43:03.267Z,31.60
2018-07-19T15:45:33.587Z,32.80
2018-07-19T15:48:03.677Z,33.10
2018-07-19T15:50:33.855Z,32.70
2018-07-19T15:53:04.078Z,31.70
2018-07-19T15:55:34.294Z,31.20
2018-07-19T15:58:04.546Z,30.80
2018-07-19T16:00:34.708Z,30.70
2018-07-19T16:03:04.975Z,31.40
2018-07-19T16:05:35.112Z,32.00
2018-07-19T16:08:05.321Z,32.30
2018-07-19T16:10:35.521Z,32.10
2018-07-19T16:13:05.788Z,32.00
2018-07-19T16:15:35.985Z,31.90
2018-07-19T16:18:06.326Z,32.20
2018-07-19T16:20:36.607Z,32.50
2018-07-19T16:23:06.804Z,32.50
2018-07-19T16:25:36.954Z,32.60
2018-07-19T16:28:07.083Z,32.40
2018-07-19T16:30:37.254Z,32.40
2018-07-19T16:33:07.629Z,31.90
2018-07-19T16:35:37.861Z,31.80
2018-07-19T16:38:08.001Z,31.90
2018-07-19T16:40:38.346Z,32.10
2018-07-19T16:43:08.470Z,32.10
2018-07-19T16:45:38.783Z,31.90
2018-07-19T16:48:08.917Z,31.20
2018-07-19T16:50:39.128Z,30.70
2018-07-19T16:53:09.245Z,30.10
2018-07-19T16:55:39.483Z,29.70
2018-07-19T16:58:09.658Z,29.50
2018-07-19T17:00:39.893Z,29.50
2018-07-19T17:03:10.006Z,29.30
2018-07-19T17:05:40.168Z,29.20
2018-07-19T17:08:10.285Z,29.10
2018-07-19T17:10:40.618Z,29.00
2018-07-19T17:13:10.776Z,28.80
2018-07-19T17:15:40.967Z,28.60
2018-07-19T17:18:11.436Z,28.60
2018-07-19T17:20:41.567Z,28.50
2018-07-19T17:23:11.689Z,28.50
2018-07-19T17:25:41.904Z,28.60
2018-07-19T17:28:12.023Z,28.60
2018-07-19T17:30:42.188Z,28.70
2018-07-19T17:33:12.381Z,28.70
2018-07-19T17:35:42.618Z,28.70
2018-07-19T17:38:13.028Z,28.70
2018-07-19T17:40:43.200Z,28.50
2018-07-19T17:43:13.314Z,28.40
2018-07-19T17:45:43.486Z,28.20
2018-07-19T17:48:16.105Z,28.00
2018-07-19T17:50:46.293Z,27.80
2018-07-19T17:53:16.621Z,27.70
2018-07-19T17:55:46.825Z,27.50
2018-07-19T17:58:17.098Z,27.50
2018-07-19T18:00:47.254Z,27.40
2018-07-19T18:03:17.428Z,27.40
2018-07-19T18:05:47.554Z,27.40
2018-07-19T18:08:17.685Z,27.40
2018-07-19T18:10:47.949Z,27.50
2018-07-19T18:13:18.072Z,27.60
2018-07-19T18:15:48.437Z,27.70
2018-07-19T18:18:18.584Z,27.70
2018-07-19T18:20:48.785Z,27.80
2018-07-19T18:23:19.060Z,27.90
2018-07-19T18:25:49.310Z,28.00
2018-07-19T18:28:19.596Z,28.00
2018-07-19T18:30:49.948Z,27.90
2018-07-19T18:33:20.088Z,27.90
2018-07-19T18:35:50.435Z,27.80
2018-07-19T18:38:20.587Z,27.70
2018-07-19T18:40:51.012Z,27.60
2018-07-19T18:43:21.385Z,27.50
2018-07-19T18:45:51.662Z,27.40
2018-07-19T18:48:21.934Z,27.40
2018-07-19T18:50:52.249Z,27.30
2018-07-19T18:53:23.237Z,27.20
2018-07-19T18:55:53.531Z,27.10
2018-07-19T18:58:23.692Z,27.10
2018-07-19T19:00:53.904Z,27.00
2018-07-19T19:03:24.098Z,27.00
2018-07-19T19:05:54.315Z,26.80
2018-07-19T19:08:24.579Z,26.70
2018-07-19T19:10:54.895Z,26.50
2018-07-19T19:13:25.087Z,26.40
2018-07-19T19:15:55.297Z,26.30
2018-07-19T19:18:25.465Z,26.20
2018-07-19T19:20:55.810Z,26.10
2018-07-19T19:23:25.958Z,26.00
2018-07-19T19:25:56.178Z,25.80
2018-07-19T19:28:26.548Z,25.70
2018-07-19T19:30:56.760Z,25.50
2018-07-19T19:33:27.011Z,25.30
2018-07-19T19:35:57.237Z,25.10
2018-07-19T19:38:27.414Z,24.90
2018-07-19T19:40:57.609Z,24.70
2018-07-19T19:43:27.729Z,24.40
2018-07-19T19:45:58.007Z,24.30
2018-07-19T19:48:28.254Z,24.20
2018-07-19T19:50:58.480Z,24.10
2018-07-19T19:53:28.700Z,23.90
2018-07-19T19:58:28.757Z,23.40
2018-07-19T20:00:58.948Z,23.20
2018-07-19T20:03:29.205Z,23.00
2018-07-19T20:05:59.465Z,22.80
2018-07-19T20:08:29.621Z,22.60
2018-07-19T20:10:59.817Z,22.50
2018-07-19T20:13:30.135Z,22.70
2018-07-19T20:16:00.364Z,23.00
2018-07-19T20:18:30.622Z,23.20
2018-07-19T20:21:00.761Z,23.30
2018-07-19T20:23:30.951Z,23.40
2018-07-19T20:26:01.272Z,23.40
2018-07-19T20:28:31.453Z,23.20
2018-07-19T20:31:01.698Z,23.20
2018-07-19T20:33:31.826Z,23.10
2018-07-19T20:36:02.261Z,23.10
2018-07-19T20:38:32.435Z,23.10
2018-07-19T20:41:02.612Z,23.00
2018-07-19T20:43:32.797Z,23.00
2018-07-19T20:46:03.065Z,22.90
2018-07-19T20:48:33.214Z,22.80
2018-07-19T20:51:03.383Z,22.70
2018-07-19T20:53:33.575Z,22.60
2018-07-19T20:56:03.745Z,22.60
2018-07-19T20:58:33.863Z,22.50
2018-07-19T21:01:04.121Z,22.40
2018-07-19T21:03:34.425Z,22.30
2018-07-19T21:06:04.599Z,22.30
2018-07-19T21:08:34.694Z,22.20
2018-07-19T21:11:04.875Z,22.20
2018-07-19T21:13:35.007Z,22.10
2018-07-19T21:16:05.295Z,22.10
2018-07-19T21:18:35.469Z,22.00
2018-07-19T21:21:05.699Z,22.00
2018-07-19T21:23:36.002Z,21.90
2018-07-19T21:26:06.235Z,21.90
2018-07-19T21:28:36.359Z,21.80
2018-07-19T21:31:06.605Z,21.80
2018-07-19T21:33:36.782Z,21.80
2018-07-19T21:36:07.143Z,21.70
2018-07-19T21:38:37.253Z,21.60
2018-07-19T21:41:07.434Z,21.50
2018-07-19T21:43:37.580Z,21.50
2018-07-19T21:46:08.046Z,21.40
2018-07-19T21:48:38.140Z,21.30
2018-07-19T21:51:08.285Z,21.20
2018-07-19T21:53:38.406Z,21.20
2018-07-19T21:56:08.600Z,21.20
2018-07-19T21:58:39.732Z,21.20
2018-07-19T22:01:10.801Z,21.10
2018-07-19T22:03:41.272Z,21.10
2018-07-19T22:06:11.407Z,21.00
2018-07-19T22:08:41.582Z,21.00
2018-07-19T22:11:10.601Z,20.90
2018-07-19T22:13:40.785Z,20.90
2018-07-19T22:16:10.964Z,20.80
2018-07-19T22:18:41.087Z,20.80
2018-07-19T22:21:11.231Z,20.70
2018-07-19T22:23:41.350Z,20.60
2018-07-19T22:26:11.524Z,20.60
2018-07-19T22:28:41.682Z,20.60
2018-07-19T22:31:11.863Z,20.50
2018-07-19T22:33:41.976Z,20.40
2018-07-19T22:36:12.131Z,20.40
2018-07-19T22:38:42.225Z,20.30
2018-07-19T22:41:12.398Z,20.20
2018-07-19T22:43:42.599Z,20.20
2018-07-19T22:46:22.690Z,20.20
2018-07-19T22:48:55.548Z,20.10
2018-07-19T22:51:26.220Z,20.00
2018-07-19T22:53:56.458Z,20.00
2018-07-19T22:56:26.699Z,20.00
2018-07-19T22:58:56.808Z,20.00
2018-07-19T23:01:26.972Z,20.00
2018-07-19T23:03:57.100Z,19.90
2018-07-19T23:06:27.329Z,19.90
2018-07-19T23:08:57.454Z,20.00
2018-07-19T23:11:27.712Z,20.00
2018-07-19T23:13:57.914Z,19.90
2018-07-19T23:16:28.048Z,19.90
2018-07-19T23:18:58.200Z,19.90
2018-07-19T23:21:28.368Z,19.80
2018-07-19T23:23:58.457Z,19.80
2018-07-19T23:26:28.667Z,19.70
2018-07-19T23:28:58.876Z,19.70
2018-07-19T23:31:29.133Z,19.60
2018-07-19T23:33:59.348Z,19.60
2018-07-19T23:36:35.217Z,19.40
2018-07-19T23:39:17.096Z,19.40
2018-07-19T23:42:05.230Z,19.30
2018-07-19T23:44:40.296Z,19.30
2018-07-19T23:47:13.949Z,19.20
2018-07-19T23:49:44.029Z,19.10
2018-07-19T23:52:14.169Z,18.90
2018-07-19T23:54:44.307Z,18.80
2018-07-19T23:57:14.463Z,18.70
2018-07-19T23:59:44.544Z,18.60
